Terminal Aerodrome Forecast
Issued by NWS Greer, SC

Home | Current Version | Previous Version | Text Only | Print | Product List | Glossary On
Versions: 1 2 3 4 5 6 7 8 9 10 11 12
680
FTUS42 KGSP 282336
TAFGSP
TAF
KGSP 282336Z 2900/2924 15004KT P6SM SCT080 BKN250
     FM290700 03003KT P6SM FEW025 OVC060
      TEMPO 2909/2913 4SM -SHRA OVC025
     FM291300 04007KT P6SM -SHRA SCT025 BKN050
     FM291800 03010KT P6SM SCT040 BKN090 PROB30 2918/2922 4SM -RA
      OVC040=

USA.gov is the U.S. government's official web portal to all federal, state and local government web resources and services.